Time;durP1;ratioP1;P1;durP2;ratioP2;P2;SDS_P1;SDS_P2;PMS_P1;PMS_P2;Temp;Humidity;BMP_temperature;BMP_pressure;BME280_temperature;BME280_humidity;BME280_pressure;Samples;Min_cycle;Max_cycle;Signal;HPM_P1;HPM_P2
2022/06/09 00:01:40;;;;;;;;;6.20;4.00;;;;;14.78;100.00;101012.09;5083201;28;44721;-85
2022/06/09 00:04:23;;;;;;;;;2.00;1.20;;;;;14.73;100.00;101013.44;5081092;27;44962;-85
2022/06/09 00:07:02;;;;;;;;;4.00;2.20;;;;;14.70;100.00;101019.03;5081761;27;46674;-87
2022/06/09 00:09:35;;;;;;;;;5.00;3.40;;;;;14.59;100.00;101035.91;5082636;27;45408;-84
2022/06/09 00:12:00;;;;;;;;;2.80;2.80;;;;;14.55;100.00;101030.00;5081812;27;45236;-88
2022/06/09 00:14:27;;;;;;;;;5.25;1.00;;;;;14.53;100.00;101031.06;5081146;27;45476;-87
2022/06/09 00:16:53;;;;;;;;;4.40;2.00;;;;;14.48;100.00;101027.91;5083136;27;45413;-87
2022/06/09 00:19:18;;;;;;;;;5.25;2.00;;;;;14.47;100.00;101031.53;5088715;27;44763;-86
2022/06/09 00:21:44;;;;;;;;;0.75;0.00;;;;;14.42;100.00;101033.72;5083528;28;45372;-86
2022/06/09 00:24:09;;;;;;;;;2.25;2.00;;;;;14.37;100.00;101026.91;5086965;27;45258;-85
2022/06/09 00:26:35;;;;;;;;;1.00;1.00;;;;;14.36;100.00;101032.38;5087474;28;45145;-86
2022/06/09 00:29:02;;;;;;;;;5.00;3.75;;;;;14.29;100.00;101041.81;5085757;28;44700;-86
2022/06/09 00:31:27;;;;;;;;;3.00;3.00;;;;;14.24;100.00;101047.53;5088634;27;45226;-87
2022/06/09 00:33:53;;;;;;;;;7.00;5.50;;;;;14.27;100.00;101051.78;5089463;27;44797;-86
2022/06/09 00:36:19;;;;;;;;;3.50;2.50;;;;;14.24;100.00;101055.53;5088374;28;45486;-86
2022/06/09 00:38:44;;;;;;;;;4.50;3.00;;;;;14.15;100.00;101053.56;5084927;27;44811;-85
2022/06/09 00:41:10;;;;;;;;;3.75;2.00;;;;;14.12;100.00;101062.69;5070675;27;44677;-85
2022/06/09 00:43:36;;;;;;;;;3.50;3.50;;;;;14.12;100.00;101064.50;5069614;28;44765;-86
2022/06/09 00:46:01;;;;;;;;;3.00;2.40;;;;;14.12;100.00;101054.69;5072482;28;45269;-87
2022/06/09 00:48:44;;;;;;;;;3.25;3.25;;;;;14.10;100.00;101061.09;5067624;28;44745;-87
2022/06/09 00:54:43;;;;;;;;;5.25;3.50;;;;;14.01;100.00;101051.94;5076360;27;45574;-86
2022/06/09 00:57:17;;;;;;;;;4.25;2.25;;;;;14.01;100.00;101062.63;5085248;27;45394;-86
2022/06/09 00:59:49;;;;;;;;;7.80;2.00;;;;;13.99;100.00;101053.06;5085217;27;44749;-87
2022/06/09 01:02:18;;;;;;;;;4.00;3.00;;;;;13.95;100.00;101060.44;5088185;28;44765;-88
2022/06/09 01:04:47;;;;;;;;;4.00;2.50;;;;;13.91;100.00;101064.31;5085477;27;44860;-88
2022/06/09 01:07:18;;;;;;;;;7.00;4.60;;;;;13.88;100.00;101067.22;5088577;27;46109;-87
2022/06/09 01:09:43;;;;;;;;;8.40;3.60;;;;;13.82;100.00;101073.84;5092998;28;44830;-87
2022/06/09 01:12:27;;;;;;;;;6.75;3.00;;;;;13.79;100.00;101076.78;5091687;27;44812;-88
2022/06/09 01:14:59;;;;;;;;;2.60;1.00;;;;;13.76;100.00;101070.81;5082165;27;44909;-87
2022/06/09 01:17:52;;;;;;;;;6.80;3.00;;;;;13.77;100.00;101069.84;5083545;28;45044;-86
2022/06/09 01:20:37;;;;;;;;;4.80;2.00;;;;;13.70;100.00;101074.78;5079348;28;44841;-88
2022/06/09 01:23:39;;;;;;;;;6.60;3.00;;;;;13.69;100.00;101078.44;5081323;28;44766;-88
2022/06/09 01:26:32;;;;;;;;;5.20;4.00;;;;;13.63;100.00;101076.19;5013789;28;44809;-86
2022/06/09 01:29:16;;;;;;;;;4.80;2.40;;;;;13.61;100.00;101070.13;5033987;28;45293;-86
2022/06/09 01:31:45;;;;;;;;;3.00;3.00;;;;;13.57;100.00;101080.19;5033262;28;44755;-85
2022/06/09 01:34:23;;;;;;;;;5.60;2.80;;;;;13.57;100.00;101085.53;5012817;28;45109;-82
2022/06/09 01:37:00;;;;;;;;;8.20;3.00;;;;;13.54;100.00;101093.78;5018659;28;44839;-82
2022/06/09 01:39:42;;;;;;;;;3.80;2.40;;;;;13.51;100.00;101096.66;5022706;28;45373;-82
2022/06/09 01:42:31;;;;;;;;;8.20;5.20;;;;;13.50;100.00;101100.31;5032043;28;44740;-86
2022/06/09 01:45:08;;;;;;;;;8.00;5.60;;;;;13.49;100.00;101095.06;5033661;28;44818;-87
2022/06/09 01:47:37;;;;;;;;;3.00;3.00;;;;;13.44;100.00;101100.75;5028868;28;44802;-86
2022/06/09 01:50:06;;;;;;;;;7.20;4.80;;;;;13.43;100.00;101088.34;5012698;28;46329;-87
2022/06/09 01:52:34;;;;;;;;;3.40;2.80;;;;;13.45;100.00;101105.13;5031553;28;44736;-86
2022/06/09 01:55:03;;;;;;;;;6.00;3.60;;;;;13.46;100.00;101101.47;5024360;28;44886;-87
2022/06/09 01:57:35;;;;;;;;;5.80;2.40;;;;;13.44;100.00;101102.53;5004845;28;44933;-87
2022/06/09 02:00:06;;;;;;;;;7.60;2.80;;;;;13.42;100.00;101108.00;5020068;28;45433;-88
2022/06/09 02:02:37;;;;;;;;;6.80;3.40;;;;;13.46;100.00;101106.81;5038454;28;44667;-88
2022/06/09 02:05:09;;;;;;;;;7.60;3.00;;;;;13.45;100.00;101115.81;5065973;28;44881;-85
2022/06/09 02:07:37;;;;;;;;;0.80;0.80;;;;;13.42;100.00;101117.84;5062356;28;45391;-87
2022/06/09 02:10:20;;;;;;;;;4.60;3.00;;;;;13.41;100.00;101124.13;5077849;27;46662;-86
2022/06/09 02:12:48;;;;;;;;;0.00;0.00;;;;;13.43;100.00;101119.53;5060818;28;44843;-88
2022/06/09 02:15:20;;;;;;;;;6.60;2.40;;;;;13.44;100.00;101126.56;5058143;28;45355;-88
2022/06/09 02:17:48;;;;;;;;;3.00;2.40;;;;;13.43;100.00;101127.53;5061293;28;45288;-88
2022/06/09 02:20:16;;;;;;;;;4.20;3.20;;;;;13.41;100.00;101110.78;5061781;28;44998;-87
2022/06/09 02:22:41;;;;;;;;;6.00;3.20;;;;;13.41;100.00;101122.31;5060645;28;44792;-86
2022/06/09 02:25:07;;;;;;;;;5.75;3.75;;;;;13.42;100.00;101118.69;5065982;28;44765;-87
2022/06/09 02:27:33;;;;;;;;;7.75;3.00;;;;;13.45;100.00;101137.16;5079328;28;44836;-86
2022/06/09 02:29:59;;;;;;;;;11.25;2.50;;;;;13.39;100.00;101142.91;5079715;28;45568;-86
2022/06/09 02:32:25;;;;;;;;;4.00;2.75;;;;;13.36;100.00;101130.66;5079174;28;44755;-87
2022/06/09 02:34:51;;;;;;;;;13.00;2.80;;;;;13.35;100.00;101126.28;5080319;28;44681;-88
2022/06/09 02:37:16;;;;;;;;;6.25;4.00;;;;;13.34;100.00;101135.28;5083059;27;44694;-89
2022/06/09 02:39:43;;;;;;;;;5.75;3.50;;;;;13.30;100.00;101147.13;5080848;27;45495;-86
2022/06/09 02:42:09;;;;;;;;;12.80;3.00;;;;;13.31;100.00;101135.47;5082613;27;44738;-87
2022/06/09 02:44:34;;;;;;;;;8.00;3.75;;;;;13.31;100.00;101127.47;5090210;27;44740;-86
2022/06/09 02:47:00;;;;;;;;;5.25;3.00;;;;;13.27;100.00;101136.66;5095084;27;44862;-85
2022/06/09 02:49:26;;;;;;;;;8.50;5.75;;;;;13.24;100.00;101131.53;5093766;27;45318;-86
2022/06/09 02:51:54;;;;;;;;;5.75;5.00;;;;;13.27;100.00;101135.81;5094322;27;44762;-87
2022/06/09 02:54:20;;;;;;;;;9.00;5.20;;;;;13.23;100.00;101137.84;5096802;27;45246;-86
2022/06/09 02:56:46;;;;;;;;;8.40;4.00;;;;;13.22;100.00;101144.13;5097047;28;44829;-88
2022/06/09 02:59:13;;;;;;;;;0.00;0.00;;;;;13.24;100.00;101144.88;5089833;28;45351;-88
2022/06/09 03:01:39;;;;;;;;;6.40;4.20;;;;;13.20;100.00;101130.03;5083209;27;45374;-88
2022/06/09 03:04:06;;;;;;;;;5.40;3.00;;;;;13.21;100.00;101134.41;5100368;27;44766;-88
2022/06/09 03:06:31;;;;;;;;;9.25;7.50;;;;;13.20;100.00;101134.50;5085409;27;44785;-89
2022/06/09 03:08:58;;;;;;;;;5.00;5.00;;;;;13.18;100.00;101131.09;5087459;27;45390;-88
2022/06/09 03:11:23;;;;;;;;;6.00;4.00;;;;;13.18;100.00;101131.09;5090754;27;44633;-90
2022/06/09 03:13:49;;;;;;;;;8.00;4.50;;;;;13.21;100.00;101142.41;5085643;28;44769;-89
2022/06/09 03:16:18;;;;;;;;;6.75;3.50;;;;;13.21;100.00;101147.75;5088136;28;44833;-89
2022/06/09 03:18:45;;;;;;;;;5.00;3.40;;;;;13.25;100.00;101143.09;5092487;27;45270;-89
2022/06/09 03:21:14;;;;;;;;;7.00;2.40;;;;;13.23;100.00;101147.66;5094524;27;44807;-89
2022/06/09 03:23:40;;;;;;;;;5.60;4.80;;;;;13.23;100.00;101135.16;5091986;27;44768;-89
2022/06/09 03:26:06;;;;;;;;;3.50;2.25;;;;;13.22;100.00;101130.78;5086032;27;45209;-88
2022/06/09 03:28:32;;;;;;;;;9.60;2.60;;;;;13.22;100.00;101145.97;5083026;27;44987;-88
2022/06/09 03:30:59;;;;;;;;;9.00;3.00;;;;;13.21;100.00;101139.75;5078466;28;45297;-83
2022/06/09 03:33:24;;;;;;;;;8.40;4.40;;;;;13.21;100.00;101137.06;5082819;27;45361;-82
2022/06/09 03:35:50;;;;;;;;;4.75;4.75;;;;;13.20;100.00;101150.50;5079307;28;45505;-83
2022/06/09 03:38:16;;;;;;;;;3.00;2.00;;;;;13.17;100.00;101156.06;5079643;27;45171;-83
2022/06/09 03:40:41;;;;;;;;;10.25;6.50;;;;;13.14;100.00;101146.47;5081887;27;44669;-84
2022/06/09 03:43:06;;;;;;;;;5.50;3.25;;;;;13.17;100.00;101164.06;5081516;27;44651;-82
2022/06/09 03:45:33;;;;;;;;;6.00;3.00;;;;;13.13;100.00;101169.63;5082716;27;44812;-83
2022/06/09 03:47:59;;;;;;;;;9.00;4.60;;;;;13.15;100.00;101171.31;5085322;27;45309;-82
2022/06/09 03:50:28;;;;;;;;;13.00;7.00;;;;;13.13;100.00;101187.44;5094888;27;45232;-82
2022/06/09 03:52:54;;;;;;;;;11.80;6.20;;;;;13.13;100.00;101176.78;5086461;27;45519;-83
2022/06/09 03:55:20;;;;;;;;;11.00;5.50;;;;;13.11;100.00;101189.38;5082821;27;44835;-84
2022/06/09 03:57:45;;;;;;;;;12.60;3.80;;;;;13.10;100.00;101198.31;5082879;28;45116;-83
2022/06/09 04:00:18;;;;;;;;;4.50;3.25;;;;;13.12;100.00;101197.25;5083697;27;44805;-82
2022/06/09 04:02:44;;;;;;;;;3.60;2.80;;;;;13.11;100.00;101203.56;5082962;27;45433;-83
2022/06/09 04:05:10;;;;;;;;;5.50;4.75;;;;;13.07;100.00;101206.56;5080303;27;44842;-84
2022/06/09 04:07:36;;;;;;;;;8.60;3.60;;;;;13.04;100.00;101194.28;5079731;27;45260;-83
2022/06/09 04:10:01;;;;;;;;;7.50;6.00;;;;;13.06;100.00;101202.19;5078955;27;44711;-83
2022/06/09 04:12:27;;;;;;;;;9.25;6.25;;;;;13.03;100.00;101205.06;5079494;27;45314;-83
2022/06/09 04:14:52;;;;;;;;;10.25;3.25;;;;;13.05;100.00;101208.44;5080308;27;45216;-83
2022/06/09 04:17:18;;;;;;;;;7.50;5.25;;;;;13.07;100.00;101202.06;5081195;27;45356;-81
2022/06/09 04:19:44;;;;;;;;;7.50;5.00;;;;;13.12;100.00;101202.59;5082205;27;44733;-82
2022/06/09 04:22:09;;;;;;;;;6.50;3.75;;;;;13.11;100.00;101213.38;5080585;27;44766;-83
2022/06/09 04:24:35;;;;;;;;;10.75;5.50;;;;;13.19;100.00;101216.34;5079392;27;44736;-83
2022/06/09 04:27:01;;;;;;;;;7.00;5.00;;;;;13.26;100.00;101214.16;5079949;27;46642;-83
2022/06/09 04:29:27;;;;;;;;;15.20;6.00;;;;;13.33;100.00;101224.25;5083190;27;45433;-83
2022/06/09 04:31:53;;;;;;;;;6.50;4.00;;;;;13.34;100.00;101225.13;5082267;27;44765;-83
2022/06/09 04:34:18;;;;;;;;;11.00;6.75;;;;;13.43;100.00;101223.63;5079015;28;44876;-84
2022/06/09 04:36:43;;;;;;;;;6.50;4.00;;;;;13.43;100.00;101229.81;5070673;28;45365;-84
2022/06/09 04:39:10;;;;;;;;;11.75;3.75;;;;;13.45;100.00;101233.25;5058794;28;45497;-83
2022/06/09 04:41:36;;;;;;;;;8.40;6.80;;;;;13.48;100.00;101233.00;5060928;28;45427;-82
2022/06/09 04:44:02;;;;;;;;;9.20;6.00;;;;;13.50;100.00;101238.25;5067308;28;45245;-83
2022/06/09 04:46:28;;;;;;;;;6.50;3.75;;;;;13.59;100.00;101235.78;5059896;28;45015;-82
2022/06/09 04:48:54;;;;;;;;;5.00;3.50;;;;;13.65;100.00;101230.97;5059138;28;45602;-84
2022/06/09 04:51:21;;;;;;;;;2.40;2.20;;;;;13.60;100.00;101237.47;5058578;28;44777;-83
2022/06/09 04:53:48;;;;;;;;;7.25;3.50;;;;;13.62;100.00;101235.53;5061086;28;44908;-83
2022/06/09 04:56:16;;;;;;;;;6.60;3.00;;;;;13.67;100.00;101248.56;5065379;28;45149;-83
2022/06/09 04:58:42;;;;;;;;;4.00;4.00;;;;;13.74;100.00;101257.00;5065190;28;45307;-85
2022/06/09 05:01:16;;;;;;;;;7.60;6.00;;;;;13.78;100.00;101255.78;5076879;28;45261;-86
2022/06/09 05:03:42;;;;;;;;;5.60;2.00;;;;;13.79;100.00;101262.88;5064796;28;44792;-85
2022/06/09 05:06:08;;;;;;;;;9.00;4.40;;;;;13.81;100.00;101269.78;5065090;28;45136;-86
2022/06/09 05:08:34;;;;;;;;;5.25;3.00;;;;;13.76;100.00;101255.91;5070635;28;44710;-85
2022/06/09 05:10:59;;;;;;;;;8.00;4.50;;;;;13.76;100.00;101268.41;5072019;28;45332;-84
2022/06/09 05:13:25;;;;;;;;;9.50;5.00;;;;;13.80;100.00;101267.22;5061872;28;44862;-86
2022/06/09 05:15:53;;;;;;;;;5.00;4.00;;;;;13.84;100.00;101266.91;5063830;28;45280;-86
2022/06/09 05:18:21;;;;;;;;;6.60;3.00;;;;;13.89;100.00;101274.59;5063128;28;45006;-85
2022/06/09 05:20:49;;;;;;;;;7.20;6.60;;;;;13.96;100.00;101266.97;5061874;28;45201;-85
2022/06/09 05:23:14;;;;;;;;;5.60;4.40;;;;;14.18;100.00;101266.28;5060069;28;45293;-86
2022/06/09 05:25:42;;;;;;;;;4.50;3.25;;;;;14.25;100.00;101267.50;5064002;28;45586;-86
2022/06/09 05:28:07;;;;;;;;;7.20;3.40;;;;;14.19;100.00;101278.66;5065686;28;44787;-86
2022/06/09 05:30:33;;;;;;;;;8.25;4.00;;;;;14.21;100.00;101284.72;5066641;28;44908;-86
2022/06/09 05:32:59;;;;;;;;;8.25;4.25;;;;;14.14;100.00;101285.19;5065874;28;44889;-86
2022/06/09 05:35:24;;;;;;;;;7.60;4.40;;;;;14.16;100.00;101290.41;5068835;28;45372;-86
2022/06/09 05:46:05;;;;;;;;;6.60;3.40;;;;;14.37;100.00;101299.53;5058735;28;44886;-85
2022/06/09 05:48:31;;;;;;;;;3.20;3.00;;;;;14.62;100.00;101300.41;5075966;27;45257;-87
2022/06/09 05:50:57;;;;;;;;;3.50;3.25;;;;;14.74;100.00;101302.16;5060068;28;45158;-87
2022/06/09 05:53:22;;;;;;;;;4.00;4.00;;;;;14.63;100.00;101302.97;5060275;28;45582;-86
2022/06/09 05:55:48;;;;;;;;;3.00;3.00;;;;;14.63;100.00;101308.31;5060420;28;45039;-85
2022/06/09 05:58:13;;;;;;;;;6.75;4.25;;;;;14.56;100.00;101317.78;5062230;28;44730;-85
2022/06/09 06:00:41;;;;;;;;;4.75;4.00;;;;;14.69;100.00;101314.16;5066455;27;44738;-85
2022/06/09 06:03:08;;;;;;;;;2.40;2.40;;;;;14.70;100.00;101316.75;5066379;28;44849;-85
2022/06/09 06:08:17;;;;;;;;;10.40;6.00;;;;;14.97;100.00;101313.78;5058131;28;44739;-86
2022/06/09 06:10:43;;;;;;;;;4.00;2.00;;;;;14.99;100.00;101319.03;5074694;27;44733;-85
2022/06/09 06:13:08;;;;;;;;;6.75;6.25;;;;;14.96;100.00;101314.78;5057805;28;45401;-84
2022/06/09 06:15:34;;;;;;;;;8.50;4.50;;;;;14.92;100.00;101321.31;5057722;28;44873;-85
2022/06/09 06:18:03;;;;;;;;;9.75;7.25;;;;;15.05;100.00;101322.09;5059340;28;45335;-86
2022/06/09 06:20:30;;;;;;;;;3.20;3.00;;;;;14.95;100.00;101331.81;5065502;28;44812;-87
2022/06/09 06:22:56;;;;;;;;;9.60;6.20;;;;;14.83;100.00;101320.19;5066792;28;44787;-86
2022/06/09 06:25:23;;;;;;;;;4.00;4.00;;;;;14.86;100.00;101329.81;5083053;27;45188;-85
2022/06/09 06:27:48;;;;;;;;;7.80;4.00;;;;;14.99;100.00;101327.94;5065474;28;45371;-87
2022/06/09 06:30:14;;;;;;;;;7.75;6.00;;;;;15.11;100.00;101328.81;5064839;28;45386;-84
2022/06/09 06:32:39;;;;;;;;;4.20;4.20;;;;;15.07;100.00;101311.28;5067695;28;45522;-87
2022/06/09 06:35:06;;;;;;;;;8.25;6.00;;;;;14.92;100.00;101340.03;5058212;28;45232;-87
2022/06/09 06:37:32;;;;;;;;;7.20;4.60;;;;;14.85;100.00;101342.34;5072787;27;45463;-87
2022/06/09 06:39:57;;;;;;;;;6.00;3.00;;;;;14.86;100.00;101349.41;5082686;27;45228;-87
2022/06/09 06:42:23;;;;;;;;;7.25;6.00;;;;;15.00;100.00;101334.13;5087748;28;44913;-90
2022/06/09 06:44:49;;;;;;;;;9.75;4.25;;;;;15.15;100.00;101347.19;5080693;27;44835;-84
2022/06/09 06:47:14;;;;;;;;;7.00;6.00;;;;;15.47;100.00;101345.66;5077356;27;45200;-86
2022/06/09 06:49:40;;;;;;;;;5.50;3.50;;;;;15.62;100.00;101342.66;5077672;27;45220;-81
2022/06/09 06:52:05;;;;;;;;;5.75;3.75;;;;;15.57;100.00;101352.00;5077133;28;45336;-82
2022/06/09 06:54:31;;;;;;;;;7.25;7.25;;;;;15.68;100.00;101355.59;5079522;27;45083;-81
2022/06/09 06:56:56;;;;;;;;;3.25;3.25;;;;;15.84;100.00;101352.56;5080494;27;45424;-82
2022/06/09 06:59:22;;;;;;;;;5.00;4.50;;;;;15.72;100.00;101353.53;5085094;27;45729;-83
2022/06/09 07:01:47;;;;;;;;;5.00;3.00;;;;;15.81;100.00;101360.84;5099843;27;45304;-81
2022/06/09 07:04:13;;;;;;;;;7.00;4.00;;;;;15.89;100.00;101368.25;5085851;27;45245;-82
2022/06/09 07:06:38;;;;;;;;;11.00;4.50;;;;;16.01;100.00;101361.94;5091304;27;44718;-81
2022/06/09 07:09:04;;;;;;;;;7.00;5.50;;;;;16.26;100.00;101368.00;5085898;27;44664;-83
2022/06/09 07:11:29;;;;;;;;;10.00;6.75;;;;;16.42;100.00;101366.63;5079533;27;45484;-83
2022/06/09 07:13:54;;;;;;;;;9.00;4.50;;;;;16.31;100.00;101373.84;5077398;27;45398;-81
2022/06/09 07:16:20;;;;;;;;;7.50;4.25;;;;;16.35;100.00;101380.69;5079089;28;44789;-82
2022/06/09 07:18:45;;;;;;;;;4.75;4.25;;;;;16.25;100.00;101385.09;5079512;27;44785;-82
2022/06/09 07:21:13;;;;;;;;;5.40;4.00;;;;;16.09;100.00;101388.97;5079432;27;44675;-81
2022/06/09 07:23:38;;;;;;;;;6.60;3.80;;;;;16.28;100.00;101390.19;5079610;27;45639;-82
2022/06/09 07:26:05;;;;;;;;;6.75;4.00;;;;;16.48;100.00;101388.56;5081349;27;44717;-81
2022/06/09 07:28:31;;;;;;;;;5.80;5.80;;;;;16.88;100.00;101397.78;5088280;27;44844;-81
2022/06/09 07:30:58;;;;;;;;;7.75;4.75;;;;;17.08;100.00;101393.41;5080947;27;45022;-82
2022/06/09 07:33:28;;;;;;;;;12.40;7.40;;;;;16.93;100.00;101394.72;5079829;27;45438;-84
2022/06/09 07:35:56;;;;;;;;;5.80;3.60;;;;;16.74;100.00;101406.09;5079540;27;45407;-81
2022/06/09 07:38:23;;;;;;;;;13.00;6.60;;;;;16.58;100.00;101398.41;5081589;28;44858;-83
2022/06/09 07:40:49;;;;;;;;;6.40;3.20;;;;;16.71;100.00;101398.25;5063508;28;45367;-83
2022/06/09 07:43:14;;;;;;;;;6.80;6.20;;;;;16.70;100.00;101397.41;5060555;28;45488;-82
2022/06/09 07:45:41;;;;;;;;;7.00;5.00;;;;;16.86;100.00;101404.22;5067105;28;44721;-81
2022/06/09 07:48:08;;;;;;;;;5.60;2.20;;;;;16.80;100.00;101396.69;5081145;27;44848;-82
2022/06/09 07:50:34;;;;;;;;;8.40;5.00;;;;;16.87;100.00;101408.63;5062192;28;45273;-83
2022/06/09 07:53:00;;;;;;;;;5.00;3.60;;;;;16.85;100.00;101407.91;5060046;28;45449;-83
2022/06/09 07:55:27;;;;;;;;;5.50;5.50;;;;;16.82;100.00;101416.19;5065629;28;45328;-83
2022/06/09 07:57:53;;;;;;;;;5.60;3.60;;;;;16.62;100.00;101413.28;5067871;28;44869;-81
2022/06/09 08:00:22;;;;;;;;;8.80;4.60;;;;;16.63;100.00;101408.75;5060770;28;45381;-83
2022/06/09 08:02:47;;;;;;;;;7.40;6.40;;;;;16.47;100.00;101430.63;5059235;28;45383;-83
2022/06/09 08:05:15;;;;;;;;;7.00;5.75;;;;;16.35;100.00;101419.06;5074514;27;44961;-83
2022/06/09 08:07:41;;;;;;;;;5.40;5.40;;;;;16.33;100.00;101421.00;5079753;27;45172;-83
2022/06/09 08:10:07;;;;;;;;;11.40;7.00;;;;;16.57;100.00;101420.84;5061315;27;45454;-82
2022/06/09 08:12:33;;;;;;;;;5.80;1.60;;;;;16.62;100.00;101413.28;5062123;28;45427;-83
2022/06/09 08:14:59;;;;;;;;;6.75;5.00;;;;;16.94;100.00;101426.78;5070460;27;44967;-83
2022/06/09 08:17:25;;;;;;;;;5.75;4.50;;;;;17.03;100.00;101425.16;5081781;27;45358;-82
2022/06/09 08:19:51;;;;;;;;;5.40;4.00;;;;;16.90;100.00;101419.97;5075501;27;44833;-82
2022/06/09 08:22:17;;;;;;;;;4.75;4.00;;;;;16.92;100.00;101433.25;5072566;27;45403;-82
2022/06/09 08:24:42;;;;;;;;;2.00;2.00;;;;;16.96;100.00;101435.53;5103284;27;44721;-82
2022/06/09 08:27:08;;;;;;;;;6.00;5.00;;;;;16.87;100.00;101438.13;5080325;27;44835;-82
2022/06/09 08:29:34;;;;;;;;;7.25;7.25;;;;;16.96;100.00;101438.22;5077947;27;45364;-83
2022/06/09 08:31:59;;;;;;;;;4.25;4.25;;;;;16.78;100.00;101442.44;5078011;27;45234;-82
2022/06/09 08:34:25;;;;;;;;;4.25;3.75;;;;;16.79;100.00;101445.97;5077861;28;45305;-82
2022/06/09 08:36:51;;;;;;;;;6.25;4.50;;;;;17.10;100.00;101455.88;5077837;27;45508;-84
2022/06/09 08:39:17;;;;;;;;;6.50;6.25;;;;;17.00;100.00;101448.72;5077894;27;45457;-80
2022/06/09 08:42:07;;;;;;;;;1.80;1.60;;;;;17.15;100.00;101450.13;5065719;27;45452;-83
2022/06/09 08:44:53;;;;;;;;;7.60;6.60;;;;;17.05;100.00;101451.88;5073904;27;44737;-82
2022/06/09 08:47:31;;;;;;;;;5.40;4.60;;;;;17.26;100.00;101455.47;5056503;28;45357;-81
2022/06/09 08:50:05;;;;;;;;;7.40;6.00;;;;;17.39;100.00;101453.44;5077991;27;45228;-82
2022/06/09 08:52:30;;;;;;;;;8.00;5.60;;;;;17.34;100.00;101452.13;5059846;28;45184;-81
2022/06/09 08:54:58;;;;;;;;;4.75;4.00;;;;;17.24;100.00;101440.47;5078502;28;44728;-81
2022/06/09 08:57:31;;;;;;;;;5.00;4.00;;;;;17.13;100.00;101436.00;5064736;27;44855;-81
2022/06/09 08:59:57;;;;;;;;;2.20;2.00;;;;;17.16;100.00;101439.28;5066692;28;45347;-80
2022/06/09 09:02:36;;;;;;;;;7.40;4.00;;;;;17.28;100.00;101434.72;5064929;28;45363;-81
2022/06/09 09:05:29;;;;;;;;;2.00;2.00;;;;;17.33;100.00;101442.38;5068865;27;44839;-81
2022/06/09 09:07:57;;;;;;;;;4.20;2.20;;;;;17.52;100.00;101436.31;5055163;28;45339;-81
2022/06/09 09:10:41;;;;;;;;;7.20;5.40;;;;;17.78;100.00;101445.69;5069512;27;45226;-83
2022/06/09 09:13:20;;;;;;;;;4.60;3.00;;;;;17.60;100.00;101450.78;5065716;27;45174;-82
2022/06/09 09:16:01;;;;;;;;;4.40;4.20;;;;;17.68;100.00;101445.59;5082720;27;45295;-82
2022/06/09 09:18:38;;;;;;;;;6.00;4.60;;;;;17.78;100.00;101434.94;5077896;28;45303;-82
2022/06/09 09:21:47;;;;;;;;;2.20;1.00;;;;;18.12;100.00;101437.38;5075712;27;45004;-81
2022/06/09 09:24:18;;;;;;;;;5.40;3.20;;;;;18.30;100.00;101433.09;5059033;28;45193;-80
2022/06/09 09:26:46;;;;;;;;;5.40;3.80;;;;;18.62;100.00;101430.22;5069875;28;44796;-81
2022/06/09 09:29:20;;;;;;;;;5.60;4.20;;;;;18.94;100.00;101431.84;5062740;28;45478;-81
2022/06/09 09:31:50;;;;;;;;;12.20;4.60;;;;;18.75;100.00;101430.81;5070195;28;45380;-81
2022/06/09 09:34:21;;;;;;;;;3.00;3.00;;;;;18.49;100.00;101443.06;5067471;28;45359;-80
2022/06/09 09:36:51;;;;;;;;;3.80;1.20;;;;;18.79;100.00;101449.41;5065535;28;45489;-84
2022/06/09 09:39:22;;;;;;;;;2.20;1.00;;;;;18.75;100.00;101451.50;5061413;28;44868;-81
2022/06/09 09:41:48;;;;;;;;;1.60;1.60;;;;;18.41;100.00;101442.88;5058615;28;45400;-83
2022/06/09 09:44:18;;;;;;;;;2.50;1.50;;;;;18.42;100.00;101445.47;5051233;28;45319;-84
2022/06/09 09:46:51;;;;;;;;;3.80;3.00;;;;;18.45;100.00;101447.00;5062026;28;44862;-84
2022/06/09 09:49:43;;;;;;;;;5.60;2.80;;;;;18.64;100.00;101443.53;5067835;28;44993;-83
2022/06/09 09:52:42;;;;;;;;;5.00;4.00;;;;;18.66;100.00;101449.63;5052446;28;45422;-83
2022/06/09 09:55:26;;;;;;;;;5.40;4.00;;;;;18.54;100.00;101446.19;5064707;28;45391;-83
2022/06/09 09:58:13;;;;;;;;;2.80;2.80;;;;;18.55;100.00;101445.19;5064403;28;45329;-83
2022/06/09 10:00:38;;;;;;;;;5.00;3.00;;;;;18.78;100.00;101458.47;5078314;27;45379;-86
2022/06/09 10:08:51;;;;;;;;;4.00;3.00;;;;;19.97;100.00;101450.97;5067426;28;44871;-87
2022/06/09 10:14:38;;;;;;;;;5.40;2.20;;;;;19.93;100.00;101457.66;5080981;28;44815;-86
2022/06/09 10:17:25;;;;;;;;;6.40;4.60;;;;;19.32;100.00;101466.06;5075428;27;45583;-85
2022/06/09 10:20:00;;;;;;;;;2.60;0.80;;;;;18.97;100.00;101464.75;5068886;28;45459;-85
2022/06/09 10:22:27;;;;;;;;;3.00;3.00;;;;;18.58;100.00;101463.78;5077832;27;45042;-85
2022/06/09 10:25:31;;;;;;;;;5.80;3.00;;;;;18.50;100.00;101466.28;5074641;27;44847;-85
2022/06/09 10:28:08;;;;;;;;;2.80;2.00;;;;;18.32;100.00;101465.22;5067529;28;46743;-86
2022/06/09 10:30:45;;;;;;;;;5.00;2.00;;;;;18.45;100.00;101463.16;5072094;28;45276;-85
2022/06/09 10:33:15;;;;;;;;;2.00;2.00;;;;;18.46;100.00;101460.31;5061738;27;45517;-85
2022/06/09 10:35:54;;;;;;;;;5.60;3.80;;;;;18.54;100.00;101474.94;5061991;28;45516;-86
2022/06/09 10:38:45;;;;;;;;;4.20;3.80;;;;;18.74;100.00;101484.81;5061559;28;45510;-85
2022/06/09 10:41:13;;;;;;;;;6.80;3.80;;;;;18.95;100.00;101479.31;5062781;27;45483;-86
2022/06/09 10:43:48;;;;;;;;;6.20;2.80;;;;;18.89;100.00;101475.34;5068537;27;44674;-87
2022/06/09 10:46:26;;;;;;;;;5.00;3.60;;;;;18.93;100.00;101484.00;5068356;27;44871;-84
2022/06/09 10:55:17;;;;;;;;;2.60;2.60;;;;;19.63;100.00;101480.28;5075702;27;45453;-82
2022/06/09 10:58:21;;;;;;;;;4.20;2.80;;;;;19.81;100.00;101477.66;5079007;27;44902;-85
2022/06/09 11:00:49;;;;;;;;;4.00;2.40;;;;;19.65;100.00;101482.81;5076934;27;45248;-85
2022/06/09 11:03:27;;;;;;;;;3.60;3.20;;;;;19.55;100.00;101477.41;5064125;27;45192;-84
2022/06/09 11:06:14;;;;;;;;;2.40;2.20;;;;;19.68;100.00;101488.78;5073966;27;45407;-85
2022/06/09 11:09:15;;;;;;;;;3.40;2.00;;;;;20.09;100.00;101480.47;5074763;28;44810;-86
2022/06/09 11:12:04;;;;;;;;;3.80;2.00;;;;;19.97;100.00;101490.59;5056970;28;45316;-84
2022/06/09 11:14:44;;;;;;;;;1.00;1.00;;;;;19.77;100.00;101493.31;5062345;28;45412;-85
2022/06/09 11:17:26;;;;;;;;;2.00;2.00;;;;;20.23;99.98;101486.22;5060163;28;45400;-85
2022/06/09 11:20:12;;;;;;;;;3.00;3.00;;;;;20.52;99.81;101498.81;5062461;28;45142;-85
2022/06/09 11:22:49;;;;;;;;;2.40;1.60;;;;;20.90;100.00;101486.09;5081761;27;45612;-86
2022/06/09 11:25:34;;;;;;;;;7.00;2.00;;;;;20.85;98.61;101489.25;5087499;27;44840;-84
2022/06/09 11:28:08;;;;;;;;;1.80;1.80;;;;;20.95;100.00;101490.03;5028646;28;45599;-84
2022/06/09 11:30:39;;;;;;;;;5.60;3.00;;;;;20.94;97.04;101487.50;5007552;28;45563;-85
2022/06/09 11:33:36;;;;;;;;;5.60;3.00;;;;;20.96;93.97;101494.44;5032019;28;45555;-86
2022/06/09 11:36:37;;;;;;;;;5.20;3.40;;;;;21.23;92.33;101482.75;5029227;28;45028;-85
2022/06/09 11:39:36;;;;;;;;;1.20;1.20;;;;;21.29;89.95;101501.03;4982511;28;45474;-84
2022/06/09 11:42:09;;;;;;;;;3.80;2.80;;;;;21.51;90.98;101496.19;4982062;28;45362;-86
2022/06/09 11:44:40;;;;;;;;;2.00;2.00;;;;;21.60;93.61;101486.31;4979126;28;45457;-85
2022/06/09 11:47:16;;;;;;;;;2.60;1.40;;;;;21.98;91.45;101493.19;4978168;28;45452;-85
2022/06/09 11:49:50;;;;;;;;;3.40;1.80;;;;;21.88;87.14;101493.28;4962549;28;45603;-85
2022/06/09 11:52:24;;;;;;;;;3.20;2.20;;;;;21.83;87.95;101494.78;4979581;28;45354;-84
2022/06/09 11:54:50;;;;;;;;;2.40;0.00;;;;;22.01;84.66;101503.72;4962145;28;45339;-85
2022/06/09 11:57:16;;;;;;;;;2.20;2.20;;;;;22.13;84.08;101504.31;4964307;28;45541;-84
2022/06/09 12:00:18;;;;;;;;;3.25;2.00;;;;;22.26;75.91;101497.47;4984964;28;44932;-85
2022/06/09 12:02:55;;;;;;;;;1.60;0.20;;;;;22.26;80.58;101492.06;4969760;28;45540;-85